Terminal Aerodrome Forecast
Issued by NWS Omaha/Valley, NE

Home | Current Version | Previous Version | Graphics & Text | Print | Product List | Glossary On
Versions: 1 2 3 4 5 6 7 8 9 10 11 12 13 14 15 16 17 18 19 20 21 22 23 24 25 26 27 28 29 30 31 32 33 34 35 36
000
FTUS43 KOAX 241125
TAFOFK
TAF
KOFK 241125Z 2412/2512 28010KT P6SM BKN250
     FM241700 28013G22KT P6SM BKN120
     FM250100 29018G30KT P6SM OVC040
     FM250300 32025G34KT P6SM OVC030
      TEMPO 2505/2509 5SM -SHRA OVC020
     FM250900 33023G32KT 4SM -SHRA OVC015=

USA.gov is the U.S. government's official web portal to all federal, state and local government web resources and services.